createdAt,value
2022-08-21T00:00:00.596Z,1.77
2022-08-21T00:03:06.166Z,1.60
2022-08-21T00:06:07.873Z,1.75
2022-08-21T00:09:15.834Z,1.60
2022-08-21T00:12:17.446Z,1.45
2022-08-21T00:15:27.414Z,1.50
2022-08-21T00:18:29.147Z,1.50
2022-08-21T00:21:30.824Z,1.60
2022-08-21T00:24:32.407Z,1.67
2022-08-21T00:27:34.695Z,1.60
2022-08-21T00:30:36.607Z,1.90
2022-08-21T00:33:38.786Z,1.70
2022-08-21T00:36:40.940Z,1.80
2022-08-21T00:39:42.666Z,1.60
2022-08-21T00:42:44.935Z,1.77
2022-08-21T00:45:56.802Z,1.63
2022-08-21T00:48:59.449Z,1.55
2022-08-21T00:52:02.387Z,1.60
2022-08-21T00:55:07.805Z,1.63
2022-08-21T00:58:13.480Z,1.70
2022-08-21T01:01:15.663Z,1.65
2022-08-21T01:04:17.980Z,1.60
2022-08-21T01:07:20.976Z,1.70
2022-08-21T01:10:24.743Z,1.77
2022-08-21T01:13:28.529Z,1.45
2022-08-21T01:16:30.307Z,1.70
2022-08-21T01:19:32.320Z,1.60
2022-08-21T01:22:34.004Z,1.40
2022-08-21T01:25:36.221Z,1.60
2022-08-21T01:28:42.930Z,1.60
2022-08-21T01:31:45.103Z,1.70
2022-08-21T01:34:48.766Z,1.52
2022-08-21T01:37:50.467Z,1.73
2022-08-21T01:40:52.308Z,1.73
2022-08-21T01:43:53.914Z,1.70
2022-08-21T01:46:57.109Z,1.75
2022-08-21T01:49:58.794Z,1.50
2022-08-21T01:53:00.581Z,1.50
2022-08-21T01:56:03.004Z,1.60
2022-08-21T01:59:04.773Z,1.70
2022-08-21T02:02:06.731Z,1.70
2022-08-21T02:05:10.435Z,1.90
2022-08-21T02:08:12.365Z,1.88
2022-08-21T02:11:14.174Z,2.17
2022-08-21T02:14:32.406Z,2.38
2022-08-21T02:17:46.792Z,1.88
2022-08-21T02:20:55.792Z,1.63
2022-08-21T02:23:58.616Z,1.80
2022-08-21T02:27:00.273Z,1.70
2022-08-21T02:30:02.001Z,2.05
2022-08-21T02:33:03.661Z,1.75
2022-08-21T02:36:05.810Z,2.00
2022-08-21T02:39:07.419Z,1.88
2022-08-21T02:42:09.073Z,1.80
2022-08-21T02:45:12.182Z,2.40
2022-08-21T02:48:22.314Z,1.90
2022-08-21T02:51:24.011Z,1.83
2022-08-21T02:54:25.677Z,1.85
2022-08-21T02:57:27.384Z,1.73
2022-08-21T03:00:30.550Z,1.90
2022-08-21T03:03:32.207Z,2.10
2022-08-21T03:06:34.690Z,2.10
2022-08-21T03:09:36.280Z,2.10
2022-08-21T03:12:37.949Z,2.47
2022-08-21T03:15:41.010Z,2.10
2022-08-21T03:18:42.702Z,1.80
2022-08-21T03:21:44.416Z,2.00
2022-08-21T03:24:46.214Z,1.80
2022-08-21T03:27:49.854Z,1.85
2022-08-21T03:30:55.116Z,1.98
2022-08-21T03:33:57.491Z,1.92
2022-08-21T03:36:59.511Z,1.90
2022-08-21T03:40:01.267Z,2.22
2022-08-21T03:43:02.948Z,2.00
2022-08-21T03:46:06.261Z,1.80
2022-08-21T03:49:07.942Z,2.10
2022-08-21T03:52:09.910Z,1.95
2022-08-21T03:55:11.620Z,2.13
2022-08-21T03:58:16.155Z,1.90
2022-08-21T04:01:18.735Z,1.80
2022-08-21T04:04:20.413Z,1.98
2022-08-21T04:07:21.995Z,1.90
2022-08-21T04:10:25.450Z,1.95
2022-08-21T04:13:29.101Z,2.10
2022-08-21T04:16:31.848Z,1.92
2022-08-21T04:19:33.513Z,1.63
2022-08-21T04:22:35.180Z,1.70
2022-08-21T04:25:36.992Z,2.05
2022-08-21T04:28:38.735Z,2.00
2022-08-21T04:31:40.393Z,2.30
2022-08-21T04:34:41.990Z,2.22
2022-08-21T04:37:43.613Z,1.90
2022-08-21T04:40:45.535Z,2.30
2022-08-21T04:43:47.518Z,2.10
2022-08-21T04:46:49.126Z,2.60
2022-08-21T04:49:51.909Z,2.13
2022-08-21T04:52:54.381Z,2.08
2022-08-21T04:56:01.637Z,2.13
2022-08-21T04:59:07.315Z,2.30
2022-08-21T05:02:10.357Z,2.47
2022-08-21T05:05:12.246Z,2.10
2022-08-21T05:08:18.865Z,2.38
2022-08-21T05:14:22.971Z,2.58
2022-08-21T05:17:24.598Z,2.28
2022-08-21T05:20:26.289Z,2.40
2022-08-21T05:23:27.935Z,3.00
2022-08-21T05:26:29.587Z,2.50
2022-08-21T05:29:32.367Z,2.20
2022-08-21T05:32:35.057Z,2.47
2022-08-21T05:35:38.486Z,2.28
2022-08-21T05:38:40.237Z,2.40
2022-08-21T05:41:41.890Z,2.40
2022-08-21T05:44:43.941Z,2.20
2022-08-21T05:47:47.043Z,2.00
2022-08-21T05:50:50.305Z,2.20
2022-08-21T05:53:51.985Z,2.42
2022-08-21T05:56:53.831Z,2.38
2022-08-21T05:59:55.431Z,2.42
2022-08-21T06:02:57.186Z,2.30
2022-08-21T06:05:59.419Z,2.50
2022-08-21T06:09:01.034Z,2.40
2022-08-21T06:12:11.837Z,2.70
2022-08-21T06:15:13.466Z,2.65
2022-08-21T06:18:15.716Z,2.75
2022-08-21T06:21:17.489Z,2.60
2022-08-21T06:24:19.122Z,2.22
2022-08-21T06:27:24.750Z,2.33
2022-08-21T06:30:28.437Z,2.30
2022-08-21T06:33:32.731Z,3.03
2022-08-21T06:36:34.836Z,2.60
2022-08-21T06:39:36.540Z,2.40
2022-08-21T06:42:38.236Z,2.50
2022-08-21T06:45:43.534Z,2.25
2022-08-21T06:48:45.134Z,1.60
2022-08-21T06:51:46.710Z,2.53
2022-08-21T06:54:48.392Z,2.00
2022-08-21T06:57:52.391Z,1.73
2022-08-21T07:00:58.701Z,2.15
2022-08-21T07:04:03.279Z,1.92
2022-08-21T07:07:04.941Z,1.60
2022-08-21T07:10:06.816Z,1.65
2022-08-21T07:13:08.501Z,1.65
2022-08-21T07:16:10.093Z,1.85
2022-08-21T07:19:11.756Z,1.80
2022-08-21T07:22:17.187Z,1.75
2022-08-21T07:25:18.900Z,2.30
2022-08-21T07:28:20.627Z,2.00
2022-08-21T07:31:24.552Z,1.80
2022-08-21T07:34:26.189Z,1.80
2022-08-21T07:37:27.901Z,1.95
2022-08-21T07:40:29.527Z,1.90
2022-08-21T07:43:31.198Z,1.80
2022-08-21T07:46:32.932Z,1.80
2022-08-21T07:49:34.614Z,2.10
2022-08-21T07:52:36.200Z,1.67
2022-08-21T07:55:37.824Z,1.85
2022-08-21T07:58:39.508Z,1.98
2022-08-21T08:01:41.556Z,1.73
2022-08-21T08:04:50.918Z,1.83
2022-08-21T08:07:52.976Z,1.70
2022-08-21T08:10:58.040Z,1.90
2022-08-21T08:14:00.458Z,1.80
2022-08-21T08:17:03.376Z,1.80
2022-08-21T08:20:07.510Z,1.42
2022-08-21T08:23:14.071Z,1.70
2022-08-21T08:26:16.771Z,1.50
2022-08-21T08:29:18.338Z,1.63
2022-08-21T08:32:20.525Z,1.60
2022-08-21T08:35:24.164Z,1.80
2022-08-21T08:38:26.458Z,2.00
2022-08-21T08:41:30.833Z,1.77
2022-08-21T08:44:32.773Z,1.70
2022-08-21T08:47:39.741Z,1.90
2022-08-21T08:50:55.647Z,1.67
2022-08-21T08:54:03.829Z,1.70
2022-08-21T08:57:11.042Z,2.05
2022-08-21T09:00:16.659Z,1.65
2022-08-21T09:06:30.368Z,1.73
2022-08-21T09:10:01.450Z,1.50
2022-08-21T09:13:16.456Z,1.90
2022-08-21T09:16:24.244Z,1.70
2022-08-21T09:19:37.410Z,1.90
2022-08-21T09:23:03.047Z,1.67
2022-08-21T09:26:14.978Z,1.77
2022-08-21T09:29:21.373Z,1.80
2022-08-21T09:32:37.816Z,1.80
2022-08-21T09:35:51.867Z,1.80
2022-08-21T09:38:56.128Z,1.80
2022-08-21T09:42:07.381Z,1.65
2022-08-21T09:45:19.012Z,1.50
2022-08-21T09:48:27.150Z,1.30
2022-08-21T09:51:39.884Z,1.50
2022-08-21T09:54:42.175Z,1.70
2022-08-21T09:57:50.520Z,1.90
2022-08-21T10:01:01.743Z,2.00
2022-08-21T10:04:05.919Z,1.60
2022-08-21T10:07:13.677Z,1.60
2022-08-21T10:10:37.514Z,1.30
2022-08-21T10:13:46.089Z,1.35
2022-08-21T10:16:47.683Z,1.58
2022-08-21T10:20:01.896Z,1.48
2022-08-21T10:23:15.531Z,1.70
2022-08-21T10:26:44.881Z,1.70
2022-08-21T10:29:58.214Z,1.58
2022-08-21T10:33:21.632Z,1.50
2022-08-21T10:36:40.522Z,1.65
2022-08-21T10:39:57.346Z,1.50
2022-08-21T10:43:26.037Z,1.80
2022-08-21T10:46:47.565Z,1.70
2022-08-21T10:50:24.291Z,1.30
2022-08-21T10:53:46.301Z,1.40
2022-08-21T10:56:50.620Z,1.38
2022-08-21T11:00:00.818Z,1.40
2022-08-21T11:03:11.838Z,1.52
2022-08-21T11:06:24.970Z,1.40
2022-08-21T11:09:27.747Z,1.30
2022-08-21T11:12:40.650Z,1.58
2022-08-21T11:15:53.895Z,1.40
2022-08-21T11:19:08.827Z,1.63
2022-08-21T11:22:27.633Z,1.30
2022-08-21T11:25:41.066Z,1.35
2022-08-21T11:29:19.614Z,1.52
2022-08-21T11:32:24.220Z,1.40
2022-08-21T11:35:50.653Z,1.30
2022-08-21T11:39:02.497Z,1.20
2022-08-21T11:42:29.679Z,1.30
2022-08-21T11:45:45.880Z,1.42
2022-08-21T11:48:50.379Z,1.40
2022-08-21T11:52:21.262Z,1.20
2022-08-21T11:55:28.888Z,1.50
2022-08-21T11:58:45.241Z,1.30
2022-08-21T12:05:00.623Z,1.25
2022-08-21T12:08:10.091Z,1.30
2022-08-21T12:11:30.564Z,1.30
2022-08-21T12:14:45.944Z,1.38
2022-08-21T12:18:07.473Z,1.33
2022-08-21T12:21:22.087Z,1.30
2022-08-21T12:24:45.262Z,1.35
2022-08-21T12:27:52.827Z,1.30
2022-08-21T12:30:57.957Z,1.23
2022-08-21T12:34:05.463Z,1.50
2022-08-21T12:37:26.861Z,1.40
2022-08-21T12:40:50.048Z,1.50
2022-08-21T12:44:05.125Z,1.50
2022-08-21T12:47:15.944Z,1.33
2022-08-21T12:50:29.832Z,1.30
2022-08-21T12:53:45.206Z,1.30
2022-08-21T12:56:57.958Z,1.20
2022-08-21T13:00:01.944Z,1.48
2022-08-21T13:03:04.301Z,1.30
2022-08-21T13:06:07.692Z,1.30
2022-08-21T13:09:16.362Z,1.40
2022-08-21T13:12:21.309Z,1.40
2022-08-21T13:15:33.456Z,1.70
2022-08-21T13:18:40.354Z,1.30
2022-08-21T13:21:45.857Z,1.50
2022-08-21T13:24:49.427Z,1.75
2022-08-21T13:28:12.575Z,1.50
2022-08-21T13:31:23.549Z,1.30
2022-08-21T13:34:30.440Z,1.40
2022-08-21T13:37:32.183Z,1.27
2022-08-21T13:40:43.795Z,1.20
2022-08-21T13:43:49.841Z,1.40
2022-08-21T13:49:58.956Z,1.50
2022-08-21T13:53:04.243Z,1.50
2022-08-21T13:56:06.112Z,1.48
2022-08-21T13:59:07.818Z,1.70
2022-08-21T14:02:12.455Z,1.40
2022-08-21T14:05:22.219Z,1.25
2022-08-21T14:08:40.990Z,1.40
2022-08-21T14:11:42.745Z,1.70
2022-08-21T14:14:45.640Z,1.48
2022-08-21T14:17:47.355Z,1.48
2022-08-21T14:20:50.244Z,1.63
2022-08-21T14:24:24.395Z,1.83
2022-08-21T14:27:26.484Z,1.73
2022-08-21T14:30:34.355Z,1.98
2022-08-21T14:33:36.630Z,1.75
2022-08-21T14:36:38.426Z,1.88
2022-08-21T14:39:44.655Z,1.92
2022-08-21T14:42:47.856Z,1.70
2022-08-21T14:45:49.625Z,1.90
2022-08-21T14:48:51.911Z,1.90
2022-08-21T14:51:57.885Z,1.80
2022-08-21T14:54:59.698Z,2.20
2022-08-21T14:58:01.593Z,2.10
2022-08-21T15:01:04.923Z,2.20
2022-08-21T15:04:06.797Z,2.00
2022-08-21T15:07:08.602Z,1.90
2022-08-21T15:10:10.338Z,1.90
2022-08-21T15:13:12.495Z,2.00
2022-08-21T15:16:14.464Z,2.20
2022-08-21T15:19:16.131Z,2.10
2022-08-21T15:22:19.066Z,2.17
2022-08-21T15:25:29.846Z,2.10
2022-08-21T15:28:31.848Z,1.90
2022-08-21T15:31:34.110Z,2.00
2022-08-21T15:34:35.723Z,2.03
2022-08-21T15:37:37.377Z,1.80
2022-08-21T15:40:39.889Z,1.60
2022-08-21T15:43:52.463Z,1.70
2022-08-21T15:46:54.350Z,1.70
2022-08-21T15:49:55.971Z,1.70
2022-08-21T15:52:57.602Z,1.70
2022-08-21T15:56:02.988Z,2.03
2022-08-21T15:59:13.573Z,1.80
2022-08-21T16:02:33.769Z,1.80
2022-08-21T16:05:35.440Z,2.00
2022-08-21T16:08:37.104Z,2.10
2022-08-21T16:11:39.750Z,1.75
2022-08-21T16:14:41.423Z,2.00
2022-08-21T16:17:48.659Z,2.08
2022-08-21T16:20:50.322Z,1.80
2022-08-21T16:23:52.039Z,2.15
2022-08-21T16:26:58.084Z,1.70
2022-08-21T16:30:01.173Z,2.00
2022-08-21T16:33:05.159Z,2.33
2022-08-21T16:36:07.990Z,2.17
2022-08-21T16:39:09.865Z,2.13
2022-08-21T16:42:16.098Z,2.33
2022-08-21T16:45:22.297Z,2.25
2022-08-21T16:48:24.798Z,2.15
2022-08-21T16:51:26.455Z,2.10
2022-08-21T16:54:30.848Z,2.00
2022-08-21T16:57:32.750Z,2.40
2022-08-21T17:00:35.402Z,1.98
2022-08-21T17:03:42.574Z,2.20
2022-08-21T17:06:44.249Z,2.00
2022-08-21T17:09:45.901Z,2.00
2022-08-21T17:12:55.994Z,2.10
2022-08-21T17:15:57.844Z,2.00
2022-08-21T17:18:59.475Z,2.22
2022-08-21T17:22:01.326Z,2.10
2022-08-21T17:25:03.339Z,2.00
2022-08-21T17:28:05.098Z,2.17
2022-08-21T17:31:10.578Z,2.30
2022-08-21T17:34:13.016Z,2.10
2022-08-21T17:37:14.913Z,1.90
2022-08-21T17:40:17.201Z,2.10
2022-08-21T17:43:19.209Z,2.30
2022-08-21T17:46:24.271Z,2.20
2022-08-21T17:49:25.942Z,2.05
2022-08-21T17:52:27.552Z,2.20
2022-08-21T17:55:30.267Z,2.42
2022-08-21T17:58:32.520Z,2.40
2022-08-21T18:01:42.508Z,2.30
2022-08-21T18:04:44.171Z,2.00
2022-08-21T18:07:45.949Z,2.00
2022-08-21T18:10:50.493Z,2.22
2022-08-21T18:13:54.120Z,1.98
2022-08-21T18:16:56.325Z,2.08
2022-08-21T18:19:59.591Z,2.10
2022-08-21T18:23:01.284Z,2.30
2022-08-21T18:26:03.057Z,2.55
2022-08-21T18:29:09.928Z,1.95
2022-08-21T18:32:30.289Z,2.03
2022-08-21T18:35:33.556Z,2.20
2022-08-21T18:38:35.828Z,2.13
2022-08-21T18:41:37.562Z,2.00
2022-08-21T18:44:41.274Z,2.08
2022-08-21T18:47:48.073Z,1.90
2022-08-21T18:50:50.358Z,1.73
2022-08-21T18:53:53.822Z,1.75
2022-08-21T18:56:57.827Z,1.70
2022-08-21T18:59:59.633Z,1.60
2022-08-21T19:06:24.548Z,1.42
2022-08-21T19:09:26.179Z,1.50
2022-08-21T19:12:29.667Z,1.45
2022-08-21T19:15:35.461Z,1.50
2022-08-21T19:18:41.216Z,1.40
2022-08-21T19:21:44.621Z,1.70
2022-08-21T19:24:49.692Z,1.80
2022-08-21T19:27:52.097Z,1.80
2022-08-21T19:31:05.286Z,1.77
2022-08-21T19:34:15.845Z,1.80
2022-08-21T19:37:18.315Z,1.60
2022-08-21T19:40:22.271Z,1.50
2022-08-21T19:43:29.185Z,1.70
2022-08-21T19:46:36.271Z,1.60
2022-08-21T19:49:41.780Z,2.70
2022-08-21T19:52:51.212Z,1.83
2022-08-21T19:55:53.278Z,1.90
2022-08-21T19:58:55.982Z,1.70
2022-08-21T20:01:57.590Z,1.67
2022-08-21T20:04:59.205Z,1.80
2022-08-21T20:08:01.028Z,1.90
2022-08-21T20:11:04.221Z,1.85
2022-08-21T20:14:09.187Z,2.22
2022-08-21T20:17:13.967Z,2.00
2022-08-21T20:20:15.662Z,1.55
2022-08-21T20:23:18.454Z,1.95
2022-08-21T20:26:32.439Z,1.90
2022-08-21T20:29:39.217Z,1.60
2022-08-21T20:32:41.136Z,1.80
2022-08-21T20:35:48.497Z,1.50
2022-08-21T20:38:53.749Z,1.60
2022-08-21T20:41:56.565Z,1.50
2022-08-21T20:44:58.478Z,1.90
2022-08-21T20:48:48.883Z,1.60
2022-08-21T20:51:58.669Z,1.90
2022-08-21T20:55:09.901Z,1.42
2022-08-21T20:58:24.349Z,1.65
2022-08-21T21:01:34.281Z,1.45
2022-08-21T21:05:10.502Z,1.42
2022-08-21T21:08:30.019Z,1.70
2022-08-21T21:15:05.333Z,1.70
2022-08-21T21:18:13.094Z,1.50
2022-08-21T21:21:32.858Z,1.50
2022-08-21T21:24:54.469Z,1.52
2022-08-21T21:28:26.234Z,1.70
2022-08-21T21:31:28.675Z,1.50
2022-08-21T21:34:35.640Z,1.70
2022-08-21T21:41:03.030Z,1.60
2022-08-21T21:44:16.752Z,1.83
2022-08-21T21:47:18.280Z,1.80
2022-08-21T21:50:46.192Z,1.67
2022-08-21T21:54:09.112Z,1.60
2022-08-21T21:57:39.816Z,1.67
2022-08-21T22:00:52.303Z,1.92
2022-08-21T22:03:54.491Z,1.90
2022-08-21T22:07:28.619Z,1.80
2022-08-21T22:10:48.103Z,1.90
2022-08-21T22:14:15.372Z,2.00
2022-08-21T22:17:26.059Z,1.70
2022-08-21T22:20:46.805Z,1.67
2022-08-21T22:23:52.948Z,1.73
2022-08-21T22:27:01.930Z,1.73
2022-08-21T22:30:09.908Z,2.00
2022-08-21T22:33:20.141Z,1.83
2022-08-21T22:36:22.652Z,2.08
2022-08-21T22:43:02.460Z,2.00
2022-08-21T22:46:06.791Z,1.95
2022-08-21T22:49:25.184Z,1.70
2022-08-21T22:52:37.645Z,2.28
2022-08-21T22:55:52.579Z,1.70
2022-08-21T22:59:01.693Z,1.80
2022-08-21T23:02:28.866Z,1.98
2022-08-21T23:05:30.523Z,2.10
2022-08-21T23:08:36.487Z,2.00
2022-08-21T23:11:42.735Z,2.17
2022-08-21T23:14:44.551Z,2.28
2022-08-21T23:18:01.951Z,2.33
2022-08-21T23:21:26.029Z,2.60
2022-08-21T23:24:49.737Z,2.70
2022-08-21T23:28:01.206Z,2.78
2022-08-21T23:31:14.521Z,2.83
2022-08-21T23:34:50.010Z,2.70
2022-08-21T23:38:21.806Z,2.88
2022-08-21T23:41:34.346Z,2.83
2022-08-21T23:45:13.967Z,3.03
2022-08-21T23:48:42.361Z,3.08
2022-08-21T23:52:12.176Z,3.20
2022-08-21T23:55:41.822Z,2.80
2022-08-21T23:58:59.719Z,2.88
